Time;durP1;ratioP1;P1;durP2;ratioP2;P2;SDS_P1;SDS_P2;PMS_P1;PMS_P2;Temp;Humidity;BMP_temperature;BMP_pressure;BME280_temperature;BME280_humidity;BME280_pressure;Samples;Min_cycle;Max_cycle;Signal;HPM_P1;HPM_P2
2023/09/26 00:00:20;;;;;;;7.97;2.83;;;;;;;;;;5092935;28;20020;-69
2023/09/26 00:02:50;;;;;;;3.72;2.50;;;;;;;;;;5093192;28;20031;-69
2023/09/26 00:05:18;;;;;;;3.88;2.50;;;;;;;;;;5093162;28;20026;-69
2023/09/26 00:07:51;;;;;;;4.40;2.85;;;;;;;;;;5092934;28;20489;-69
2023/09/26 00:10:18;;;;;;;8.13;2.78;;;;;;;;;;5074458;28;20040;-69
2023/09/26 00:12:45;;;;;;;5.22;2.40;;;;;;;;;;5092772;28;20020;-68
2023/09/26 00:15:12;;;;;;;6.28;2.97;;;;;;;;;;5092992;28;20028;-69
2023/09/26 00:17:38;;;;;;;5.85;2.95;;;;;;;;;;5093116;28;20034;-69
2023/09/26 00:20:24;;;;;;;5.32;2.80;;;;;;;;;;5092666;28;20034;-69
2023/09/26 00:22:50;;;;;;;4.03;2.80;;;;;;;;;;5092949;28;20022;-69
2023/09/26 00:25:17;;;;;;;4.10;2.40;;;;;;;;;;5092583;28;20024;-69
2023/09/26 00:27:43;;;;;;;4.35;2.88;;;;;;;;;;5092819;28;20020;-69
2023/09/26 00:30:10;;;;;;;3.92;2.75;;;;;;;;;;5092567;28;20032;-69
2023/09/26 00:32:38;;;;;;;3.95;2.78;;;;;;;;;;5092654;28;20020;-69
2023/09/26 00:35:05;;;;;;;4.97;2.72;;;;;;;;;;5092528;28;20032;-69
2023/09/26 00:37:32;;;;;;;3.60;2.65;;;;;;;;;;5092553;28;20024;-69
2023/09/26 00:39:58;;;;;;;5.88;3.05;;;;;;;;;;5092468;28;20036;-69
2023/09/26 00:42:24;;;;;;;3.70;2.50;;;;;;;;;;5092475;28;20016;-69
2023/09/26 00:44:50;;;;;;;4.57;2.83;;;;;;;;;;5092422;28;20028;-69
2023/09/26 00:47:17;;;;;;;6.07;2.70;;;;;;;;;;5092497;28;20024;-69
2023/09/26 00:49:44;;;;;;;4.70;2.63;;;;;;;;;;5091156;28;20396;-69
2023/09/26 00:52:10;;;;;;;3.70;2.28;;;;;;;;;;5092468;28;20017;-69
2023/09/26 00:54:36;;;;;;;4.90;2.92;;;;;;;;;;5092007;28;20052;-69
2023/09/26 00:57:04;;;;;;;6.63;2.70;;;;;;;;;;5092448;28;20586;-70
2023/09/26 00:59:31;;;;;;;4.30;2.58;;;;;;;;;;5092654;28;20020;-69
2023/09/26 01:01:58;;;;;;;4.40;2.95;;;;;;;;;;5095011;28;20046;-69
2023/09/26 01:04:24;;;;;;;4.47;2.72;;;;;;;;;;5096355;28;20077;-69
2023/09/26 01:06:51;;;;;;;5.15;2.95;;;;;;;;;;5096453;28;20109;-69
2023/09/26 01:09:17;;;;;;;4.97;2.80;;;;;;;;;;5095810;28;20054;-69
2023/09/26 01:11:43;;;;;;;6.50;2.70;;;;;;;;;;5096101;28;20492;-69
2023/09/26 01:14:10;;;;;;;4.95;2.88;;;;;;;;;;5096011;28;20030;-69
2023/09/26 01:16:37;;;;;;;4.20;2.75;;;;;;;;;;5096260;28;20031;-69
2023/09/26 01:19:03;;;;;;;3.83;2.53;;;;;;;;;;5096021;28;20469;-69
2023/09/26 01:21:30;;;;;;;4.13;2.40;;;;;;;;;;5095967;28;20032;-69
2023/09/26 01:23:57;;;;;;;4.60;2.80;;;;;;;;;;5095585;28;20016;-69
2023/09/26 01:26:24;;;;;;;5.70;2.97;;;;;;;;;;5096290;28;20032;-69
2023/09/26 01:28:50;;;;;;;3.83;2.95;;;;;;;;;;5095622;28;20048;-69
2023/09/26 01:31:17;;;;;;;3.95;2.70;;;;;;;;;;5095787;28;20030;-69
2023/09/26 01:33:43;;;;;;;4.20;2.70;;;;;;;;;;5095762;28;20537;-69
2023/09/26 01:36:09;;;;;;;3.67;2.38;;;;;;;;;;5095737;28;20392;-69
2023/09/26 01:38:36;;;;;;;6.68;2.75;;;;;;;;;;5095452;28;20492;-69
2023/09/26 01:41:02;;;;;;;4.75;2.92;;;;;;;;;;5095491;28;20031;-69
2023/09/26 01:43:28;;;;;;;5.07;2.90;;;;;;;;;;5095662;28;20028;-69
2023/09/26 01:45:55;;;;;;;5.40;2.80;;;;;;;;;;5095707;28;20034;-69
2023/09/26 01:48:21;;;;;;;3.97;2.75;;;;;;;;;;5095313;28;20024;-69
2023/09/26 01:50:47;;;;;;;4.80;2.65;;;;;;;;;;5095448;28;20046;-69
2023/09/26 01:53:14;;;;;;;4.78;2.88;;;;;;;;;;5094945;28;20476;-69
2023/09/26 01:55:41;;;;;;;3.83;2.60;;;;;;;;;;5094425;28;20028;-69
2023/09/26 01:58:07;;;;;;;5.32;3.03;;;;;;;;;;5095237;28;20024;-69
2023/09/26 02:00:34;;;;;;;6.57;2.80;;;;;;;;;;5095154;28;20012;-69
2023/09/26 02:03:00;;;;;;;4.80;2.92;;;;;;;;;;5095446;28;20038;-70
2023/09/26 02:05:27;;;;;;;6.00;3.05;;;;;;;;;;5095042;28;20024;-69
2023/09/26 02:07:53;;;;;;;3.97;2.80;;;;;;;;;;5094820;28;20032;-69
2023/09/26 02:10:19;;;;;;;4.65;2.60;;;;;;;;;;5093780;28;20036;-69
2023/09/26 02:12:47;;;;;;;4.63;2.90;;;;;;;;;;5093967;28;20017;-69
2023/09/26 02:15:13;;;;;;;6.05;3.20;;;;;;;;;;5094847;28;20476;-69
2023/09/26 02:17:40;;;;;;;4.28;3.00;;;;;;;;;;5095254;28;20028;-69
2023/09/26 02:20:14;;;;;;;6.90;3.08;;;;;;;;;;5094891;28;20026;-69
2023/09/26 02:22:44;;;;;;;4.75;3.10;;;;;;;;;;5076649;28;20030;-69
2023/09/26 02:25:11;;;;;;;4.30;2.75;;;;;;;;;;5095285;28;20025;-69
2023/09/26 02:27:41;;;;;;;6.25;3.05;;;;;;;;;;5094981;28;20028;-69
2023/09/26 02:30:09;;;;;;;5.53;2.80;;;;;;;;;;5093443;28;20027;-69
2023/09/26 02:32:36;;;;;;;4.72;2.95;;;;;;;;;;5094974;28;20085;-69
2023/09/26 02:35:03;;;;;;;6.25;3.10;;;;;;;;;;5094689;28;20022;-69
2023/09/26 02:37:29;;;;;;;3.70;2.88;;;;;;;;;;5094831;28;20034;-69
2023/09/26 02:39:55;;;;;;;7.45;2.97;;;;;;;;;;5094310;28;20392;-69
2023/09/26 02:42:22;;;;;;;7.18;2.90;;;;;;;;;;5094285;28;20032;-69
2023/09/26 02:44:48;;;;;;;7.55;3.13;;;;;;;;;;5094445;28;20020;-69
2023/09/26 02:47:15;;;;;;;5.88;2.80;;;;;;;;;;5093397;28;20038;-69
2023/09/26 02:49:41;;;;;;;3.55;2.75;;;;;;;;;;5094300;28;20035;-69
2023/09/26 02:52:08;;;;;;;5.90;3.10;;;;;;;;;;5094726;28;20077;-69
2023/09/26 02:54:34;;;;;;;4.82;2.72;;;;;;;;;;5094079;28;20044;-69
2023/09/26 02:57:01;;;;;;;3.38;2.65;;;;;;;;;;5094481;28;20024;-69
2023/09/26 02:59:29;;;;;;;5.28;2.75;;;;;;;;;;5094014;28;20036;-69
2023/09/26 03:01:55;;;;;;;6.35;3.05;;;;;;;;;;5094411;28;20028;-69
2023/09/26 03:04:21;;;;;;;4.13;2.88;;;;;;;;;;5093731;28;20024;-69
2023/09/26 03:06:48;;;;;;;5.38;2.70;;;;;;;;;;5093871;28;20032;-69
2023/09/26 03:09:17;;;;;;;3.90;2.55;;;;;;;;;;5093001;28;20028;-69
2023/09/26 03:11:43;;;;;;;6.45;3.05;;;;;;;;;;5075915;28;20030;-69
2023/09/26 03:14:10;;;;;;;7.00;3.00;;;;;;;;;;5093878;28;20028;-69
2023/09/26 03:16:36;;;;;;;4.43;3.13;;;;;;;;;;5093742;28;20032;-69
2023/09/26 03:19:03;;;;;;;5.03;2.63;;;;;;;;;;5075400;28;20062;-69
2023/09/26 03:21:29;;;;;;;4.40;2.65;;;;;;;;;;5093666;28;20380;-69
2023/09/26 03:23:55;;;;;;;6.85;2.75;;;;;;;;;;5093352;28;20024;-69
2023/09/26 03:26:22;;;;;;;7.22;2.88;;;;;;;;;;5093960;28;20066;-69
2023/09/26 03:28:48;;;;;;;5.15;2.67;;;;;;;;;;5093482;28;20380;-69
2023/09/26 03:31:14;;;;;;;4.80;2.80;;;;;;;;;;5093643;28;20028;-70
2023/09/26 03:33:41;;;;;;;3.67;2.75;;;;;;;;;;5075477;28;20035;-69
2023/09/26 03:36:07;;;;;;;6.68;2.72;;;;;;;;;;5093277;28;20030;-69
2023/09/26 03:38:34;;;;;;;6.20;2.90;;;;;;;;;;5093591;28;20028;-69
2023/09/26 03:41:00;;;;;;;7.20;3.10;;;;;;;;;;5093656;28;20036;-69
2023/09/26 03:43:27;;;;;;;3.95;2.67;;;;;;;;;;5093408;28;20020;-69
2023/09/26 03:45:54;;;;;;;6.28;2.75;;;;;;;;;;5093234;28;20431;-69
2023/09/26 03:48:20;;;;;;;5.32;3.10;;;;;;;;;;5092890;28;20423;-69
2023/09/26 03:50:47;;;;;;;4.03;2.90;;;;;;;;;;5075049;28;20038;-69
2023/09/26 03:53:13;;;;;;;6.75;2.90;;;;;;;;;;5092841;28;20035;-69
2023/09/26 03:55:40;;;;;;;6.50;3.28;;;;;;;;;;5093084;28;20148;-69
2023/09/26 03:58:06;;;;;;;4.55;2.85;;;;;;;;;;5093105;28;20038;-69
2023/09/26 04:00:33;;;;;;;4.60;3.20;;;;;;;;;;5092944;28;20093;-69
2023/09/26 04:03:01;;;;;;;6.70;3.13;;;;;;;;;;5093014;28;20027;-69
2023/09/26 04:05:27;;;;;;;5.57;2.95;;;;;;;;;;5092991;28;20020;-69
2023/09/26 04:07:54;;;;;;;4.50;2.85;;;;;;;;;;5092924;28;20077;-69
2023/09/26 04:10:20;;;;;;;8.25;2.90;;;;;;;;;;5092946;28;20069;-69
2023/09/26 04:12:47;;;;;;;8.02;3.33;;;;;;;;;;5092841;28;20100;-69
2023/09/26 04:15:13;;;;;;;5.22;2.90;;;;;;;;;;5092757;28;20406;-69
2023/09/26 04:17:39;;;;;;;4.22;3.10;;;;;;;;;;5074483;28;20476;-69
2023/09/26 04:20:17;;;;;;;5.47;3.22;;;;;;;;;;5092629;28;20121;-69
2023/09/26 04:22:44;;;;;;;7.70;3.25;;;;;;;;;;5092668;28;20391;-69
2023/09/26 04:25:10;;;;;;;4.45;2.70;;;;;;;;;;5093043;28;20057;-69
2023/09/26 04:27:37;;;;;;;3.72;2.72;;;;;;;;;;5074547;28;20030;-69
2023/09/26 04:30:04;;;;;;;6.78;3.20;;;;;;;;;;5092570;28;20378;-69
2023/09/26 04:32:31;;;;;;;5.47;2.75;;;;;;;;;;5092324;28;20090;-69
2023/09/26 04:34:57;;;;;;;4.57;2.88;;;;;;;;;;5092782;28;20068;-69
2023/09/26 04:37:24;;;;;;;4.95;2.90;;;;;;;;;;5096264;28;20100;-68
2023/09/26 04:39:50;;;;;;;5.28;2.97;;;;;;;;;;5096754;28;20039;-69
2023/09/26 04:42:16;;;;;;;4.30;2.90;;;;;;;;;;5096740;28;20046;-69
2023/09/26 04:44:42;;;;;;;4.28;2.85;;;;;;;;;;5096584;28;20034;-69
2023/09/26 04:47:09;;;;;;;5.55;3.10;;;;;;;;;;5096336;28;20028;-69
2023/09/26 04:49:35;;;;;;;4.38;2.55;;;;;;;;;;5095619;28;20031;-68
2023/09/26 04:52:05;;;;;;;5.07;3.00;;;;;;;;;;5096540;28;20403;-68
2023/09/26 04:54:31;;;;;;;3.85;2.70;;;;;;;;;;5096449;28;20036;-69
2023/09/26 04:56:57;;;;;;;6.28;3.00;;;;;;;;;;5096669;28;20028;-69
2023/09/26 04:59:24;;;;;;;6.60;3.25;;;;;;;;;;5096279;28;20036;-69
2023/09/26 05:01:50;;;;;;;5.18;3.17;;;;;;;;;;5096127;28;20028;-69
2023/09/26 05:04:17;;;;;;;6.50;3.35;;;;;;;;;;5096451;28;20396;-69
2023/09/26 05:06:43;;;;;;;4.70;2.78;;;;;;;;;;5096405;28;20012;-69
2023/09/26 05:09:10;;;;;;;7.38;3.28;;;;;;;;;;5096306;28;20037;-69
2023/09/26 05:11:36;;;;;;;5.13;3.05;;;;;;;;;;5096185;28;20027;-69
2023/09/26 05:14:03;;;;;;;4.05;3.10;;;;;;;;;;5096104;28;20035;-69
2023/09/26 05:16:30;;;;;;;5.45;3.45;;;;;;;;;;5095668;28;20020;-69
2023/09/26 05:18:56;;;;;;;4.95;3.20;;;;;;;;;;5095945;28;20076;-69
2023/09/26 05:21:22;;;;;;;7.28;3.42;;;;;;;;;;5096205;28;20046;-69
2023/09/26 05:23:49;;;;;;;3.97;3.20;;;;;;;;;;5095923;28;20026;-69
2023/09/26 05:26:15;;;;;;;5.10;3.15;;;;;;;;;;5096206;28;20046;-69
2023/09/26 05:28:41;;;;;;;5.53;3.40;;;;;;;;;;5095791;28;20016;-69
2023/09/26 05:31:08;;;;;;;4.55;3.08;;;;;;;;;;5095498;28;20503;-69
2023/09/26 05:33:35;;;;;;;4.82;3.13;;;;;;;;;;5095685;28;20438;-69
2023/09/26 05:36:03;;;;;;;5.38;3.13;;;;;;;;;;5095606;28;20032;-69
2023/09/26 05:38:30;;;;;;;9.25;3.20;;;;;;;;;;5095590;28;20038;-69
2023/09/26 05:40:56;;;;;;;5.55;2.95;;;;;;;;;;5095919;28;20028;-69
2023/09/26 05:43:23;;;;;;;4.75;3.13;;;;;;;;;;5095185;28;20392;-69
2023/09/26 05:45:51;;;;;;;6.43;3.28;;;;;;;;;;5095892;28;20020;-69
2023/09/26 05:48:17;;;;;;;5.57;3.08;;;;;;;;;;5095717;28;20020;-69
2023/09/26 05:50:44;;;;;;;5.25;3.22;;;;;;;;;;5094219;28;20023;-69
2023/09/26 05:53:10;;;;;;;5.72;3.10;;;;;;;;;;5095142;28;20060;-69
2023/09/26 05:55:36;;;;;;;5.20;3.00;;;;;;;;;;5095317;28;20480;-69
2023/09/26 05:58:03;;;;;;;7.45;2.80;;;;;;;;;;5094852;28;20032;-69
2023/09/26 06:00:29;;;;;;;5.70;3.15;;;;;;;;;;5095106;28;20057;-69
2023/09/26 06:02:55;;;;;;;6.38;3.38;;;;;;;;;;5077425;28;20020;-69
2023/09/26 06:05:22;;;;;;;4.85;3.22;;;;;;;;;;5095062;28;20499;-69
2023/09/26 06:07:49;;;;;;;4.63;3.28;;;;;;;;;;5095083;28;20013;-69
2023/09/26 06:10:15;;;;;;;6.65;3.35;;;;;;;;;;5087065;28;20024;-69
2023/09/26 06:12:42;;;;;;;8.10;3.35;;;;;;;;;;5093592;28;20032;-69
2023/09/26 06:15:11;;;;;;;6.45;3.53;;;;;;;;;;5078081;28;20028;-68
2023/09/26 06:17:40;;;;;;;8.13;3.45;;;;;;;;;;5093798;28;20032;-69
2023/09/26 06:20:10;;;;;;;5.18;3.10;;;;;;;;;;5093711;28;20032;-69
2023/09/26 06:22:36;;;;;;;11.98;3.75;;;;;;;;;;5093765;28;20480;-69
2023/09/26 06:25:04;;;;;;;4.25;3.10;;;;;;;;;;5086397;28;20405;-68
2023/09/26 06:27:36;;;;;;;7.03;3.45;;;;;;;;;;5093730;28;20016;-68
2023/09/26 06:30:04;;;;;;;9.23;3.17;;;;;;;;;;5094062;28;20032;-69
2023/09/26 06:32:30;;;;;;;8.55;3.20;;;;;;;;;;5090846;28;20031;-69
2023/09/26 06:34:58;;;;;;;7.68;3.60;;;;;;;;;;5093348;28;20032;-69
2023/09/26 06:37:25;;;;;;;5.90;3.17;;;;;;;;;;5093604;28;20036;-69
2023/09/26 06:39:52;;;;;;;4.97;3.10;;;;;;;;;;5093651;28;20038;-69
2023/09/26 06:42:18;;;;;;;4.88;3.35;;;;;;;;;;5092968;28;20027;-69
2023/09/26 06:44:44;;;;;;;6.90;3.33;;;;;;;;;;5093729;28;20036;-68
2023/09/26 06:47:11;;;;;;;7.18;3.38;;;;;;;;;;5094098;28;20049;-69
2023/09/26 06:49:37;;;;;;;5.05;3.53;;;;;;;;;;5094003;28;20036;-69
2023/09/26 06:52:04;;;;;;;5.03;3.00;;;;;;;;;;5093107;28;20053;-68
2023/09/26 06:54:31;;;;;;;8.00;3.13;;;;;;;;;;5093354;28;20044;-67
2023/09/26 06:56:58;;;;;;;6.65;3.33;;;;;;;;;;5092971;28;20224;-69
2023/09/26 06:59:24;;;;;;;8.35;3.65;;;;;;;;;;5090733;28;20027;-69
2023/09/26 07:01:50;;;;;;;6.50;3.13;;;;;;;;;;5098122;28;20384;-69
2023/09/26 07:04:17;;;;;;;9.45;3.50;;;;;;;;;;5112592;28;20080;-69
2023/09/26 07:06:45;;;;;;;5.45;3.30;;;;;;;;;;5097179;28;20027;-69
2023/09/26 07:09:16;;;;;;;6.25;3.10;;;;;;;;;;5092419;28;20026;-69
2023/09/26 07:11:43;;;;;;;8.35;3.40;;;;;;;;;;5092494;28;20392;-68
2023/09/26 07:14:10;;;;;;;8.77;4.38;;;;;;;;;;5092174;28;20474;-69
2023/09/26 07:16:36;;;;;;;3.80;2.88;;;;;;;;;;5094044;28;20028;-69
2023/09/26 07:19:03;;;;;;;14.32;3.30;;;;;;;;;;5092232;28;20046;-69
2023/09/26 07:21:29;;;;;;;6.13;3.20;;;;;;;;;;5092005;28;20024;-68
2023/09/26 07:23:56;;;;;;;4.78;3.13;;;;;;;;;;5092576;28;20050;-68
2023/09/26 07:26:23;;;;;;;4.32;2.95;;;;;;;;;;5092190;28;20016;-68
2023/09/26 07:28:49;;;;;;;5.22;3.58;;;;;;;;;;5092183;28;20378;-68
2023/09/26 07:31:17;;;;;;;7.80;3.22;;;;;;;;;;5092854;28;20026;-69
2023/09/26 07:33:43;;;;;;;7.18;3.20;;;;;;;;;;5092800;28;20511;-68
2023/09/26 07:36:10;;;;;;;6.43;3.28;;;;;;;;;;5092653;28;20030;-69
2023/09/26 07:38:36;;;;;;;4.63;3.28;;;;;;;;;;5091802;28;20020;-68
2023/09/26 07:41:03;;;;;;;6.28;2.85;;;;;;;;;;5091723;28;20024;-68
2023/09/26 07:43:30;;;;;;;6.72;3.20;;;;;;;;;;5091819;28;20088;-67
2023/09/26 07:46:06;;;;;;;6.90;3.50;;;;;;;;;;5092720;28;20034;-69
2023/09/26 07:48:32;;;;;;;5.97;3.38;;;;;;;;;;5092746;28;20016;-69
2023/09/26 07:50:59;;;;;;;5.15;2.65;;;;;;;;;;5092216;28;20035;-68
2023/09/26 07:53:25;;;;;;;5.25;3.17;;;;;;;;;;5092256;28;20078;-69
2023/09/26 07:55:52;;;;;;;5.85;3.38;;;;;;;;;;5092039;28;20020;-69
2023/09/26 07:58:18;;;;;;;3.72;2.90;;;;;;;;;;5092629;28;20040;-69
2023/09/26 08:00:44;;;;;;;4.72;3.10;;;;;;;;;;5091958;28;20034;-68
2023/09/26 08:03:10;;;;;;;7.22;3.40;;;;;;;;;;5092439;28;20027;-69
2023/09/26 08:05:37;;;;;;;13.60;3.17;;;;;;;;;;5092378;28;20167;-69
2023/09/26 08:08:04;;;;;;;8.07;3.22;;;;;;;;;;5092158;28;20435;-68
2023/09/26 08:10:31;;;;;;;6.50;4.30;;;;;;;;;;5090952;28;20040;-67
2023/09/26 08:12:58;;;;;;;7.45;4.00;;;;;;;;;;5092549;28;20017;-67
2023/09/26 08:15:28;;;;;;;9.68;5.72;;;;;;;;;;5100943;28;20027;-68
2023/09/26 08:17:54;;;;;;;9.50;5.93;;;;;;;;;;5093426;28;20020;-67
2023/09/26 08:20:20;;;;;;;7.72;4.72;;;;;;;;;;5091840;28;20040;-67
2023/09/26 08:22:47;;;;;;;10.32;4.13;;;;;;;;;;5092223;28;20028;-68
2023/09/26 08:25:13;;;;;;;6.00;4.63;;;;;;;;;;5091506;28;20024;-67
2023/09/26 08:27:40;;;;;;;5.75;3.65;;;;;;;;;;5091131;28;20023;-66
2023/09/26 08:30:07;;;;;;;7.40;3.92;;;;;;;;;;5090769;28;20104;-67
2023/09/26 08:32:34;;;;;;;4.20;3.40;;;;;;;;;;5091344;28;20024;-68
2023/09/26 08:35:00;;;;;;;6.45;3.45;;;;;;;;;;5091617;28;20028;-68
2023/09/26 08:37:26;;;;;;;5.25;3.83;;;;;;;;;;5090977;28;20023;-68
2023/09/26 08:39:53;;;;;;;6.68;4.25;;;;;;;;;;5091419;28;20039;-68
2023/09/26 08:42:40;;;;;;;9.30;5.10;;;;;;;;;;5091286;28;20020;-68
2023/09/26 08:45:07;;;;;;;8.30;5.60;;;;;;;;;;5090099;28;20024;-67
2023/09/26 08:47:39;;;;;;;10.70;5.43;;;;;;;;;;5091264;28;20024;-68
2023/09/26 08:50:05;;;;;;;12.02;4.90;;;;;;;;;;5091761;28;20024;-68
2023/09/26 08:52:33;;;;;;;7.68;4.75;;;;;;;;;;5088968;28;20484;-68
2023/09/26 08:55:00;;;;;;;5.38;4.18;;;;;;;;;;5090107;28;20048;-67
2023/09/26 08:57:26;;;;;;;4.78;3.97;;;;;;;;;;5091936;28;20024;-68
2023/09/26 08:59:54;;;;;;;6.10;3.80;;;;;;;;;;5081141;28;20020;-68
2023/09/26 09:02:20;;;;;;;6.50;3.28;;;;;;;;;;5091097;28;20030;-68
2023/09/26 09:04:47;;;;;;;9.30;3.42;;;;;;;;;;5091187;28;20030;-67
2023/09/26 09:07:14;;;;;;;5.32;3.45;;;;;;;;;;5091060;28;20025;-68
2023/09/26 09:10:01;;;;;;;8.27;3.55;;;;;;;;;;5091567;28;20024;-68
2023/09/26 09:12:28;;;;;;;5.50;3.13;;;;;;;;;;5091464;28;20013;-68
2023/09/26 09:14:55;;;;;;;6.00;2.83;;;;;;;;;;5096140;28;20032;-69
2023/09/26 09:17:21;;;;;;;2.83;2.63;;;;;;;;;;5085682;28;20468;-68
2023/09/26 09:19:48;;;;;;;6.35;2.65;;;;;;;;;;5091486;28;20039;-68
2023/09/26 09:22:18;;;;;;;3.75;2.88;;;;;;;;;;5092701;28;20028;-68
2023/09/26 09:24:52;;;;;;;4.15;2.60;;;;;;;;;;5095501;28;20034;-68
2023/09/26 09:27:29;;;;;;;4.35;2.97;;;;;;;;;;5090563;28;20044;-68
2023/09/26 09:30:05;;;;;;;5.03;2.80;;;;;;;;;;5084518;28;20028;-68
2023/09/26 09:32:31;;;;;;;3.70;2.97;;;;;;;;;;5094967;28;20074;-68
2023/09/26 09:34:58;;;;;;;2.80;2.60;;;;;;;;;;5094879;28;20088;-69
2023/09/26 09:37:24;;;;;;;6.20;2.88;;;;;;;;;;5094274;28;20016;-68
2023/09/26 09:39:51;;;;;;;4.95;2.72;;;;;;;;;;5089748;28;20039;-68
2023/09/26 09:42:17;;;;;;;3.42;2.58;;;;;;;;;;5094803;28;20032;-68
2023/09/26 09:44:44;;;;;;;7.95;2.80;;;;;;;;;;5094218;28;20020;-67
2023/09/26 09:47:12;;;;;;;4.05;2.63;;;;;;;;;;5094401;28;20065;-68
2023/09/26 09:49:42;;;;;;;2.78;2.45;;;;;;;;;;5095019;28;20036;-68
2023/09/26 09:52:09;;;;;;;4.70;2.88;;;;;;;;;;5076219;28;20035;-68
2023/09/26 09:54:41;;;;;;;5.93;2.75;;;;;;;;;;5093507;28;20036;-67
2023/09/26 09:57:11;;;;;;;5.10;2.72;;;;;;;;;;5093329;28;20020;-67
2023/09/26 09:59:39;;;;;;;3.13;2.60;;;;;;;;;;5076080;28;20052;-68
2023/09/26 10:02:05;;;;;;;6.53;3.08;;;;;;;;;;5087101;28;20510;-67
2023/09/26 10:04:36;;;;;;;8.27;2.60;;;;;;;;;;5093628;28;20030;-68
2023/09/26 10:07:02;;;;;;;7.97;2.80;;;;;;;;;;5093872;28;20384;-68
2023/09/26 10:09:31;;;;;;;3.47;2.55;;;;;;;;;;5094172;28;20384;-69
2023/09/26 10:11:58;;;;;;;3.25;2.45;;;;;;;;;;5094504;28;20024;-68
2023/09/26 10:14:27;;;;;;;5.75;2.45;;;;;;;;;;5094881;28;20022;-68
2023/09/26 10:16:55;;;;;;;5.80;2.30;;;;;;;;;;5096433;28;20028;-68
2023/09/26 10:19:23;;;;;;;3.97;2.50;;;;;;;;;;5114230;28;20105;-69
2023/09/26 10:21:49;;;;;;;5.55;2.55;;;;;;;;;;5114760;28;20027;-69
2023/09/26 10:24:18;;;;;;;7.65;2.95;;;;;;;;;;5114565;28;20023;-69
2023/09/26 10:27:05;;;;;;;3.85;2.85;;;;;;;;;;5109320;28;20544;-69
2023/09/26 10:29:32;;;;;;;3.55;2.70;;;;;;;;;;5093013;28;20024;-68
2023/09/26 10:31:59;;;;;;;6.60;2.63;;;;;;;;;;5094422;28;20027;-69
2023/09/26 10:34:29;;;;;;;3.80;2.47;;;;;;;;;;5093019;28;20085;-69
2023/09/26 10:36:56;;;;;;;3.77;2.70;;;;;;;;;;5094107;28;20477;-69
2023/09/26 10:39:52;;;;;;;4.82;2.33;;;;;;;;;;5093911;28;20088;-69
2023/09/26 10:42:20;;;;;;;3.83;2.63;;;;;;;;;;5077019;28;20043;-68
2023/09/26 10:44:49;;;;;;;6.15;2.80;;;;;;;;;;5093793;28;20545;-69
2023/09/26 10:47:15;;;;;;;3.30;2.88;;;;;;;;;;5094013;28;20027;-69
2023/09/26 10:49:43;;;;;;;3.25;2.53;;;;;;;;;;5093486;28;20032;-69
2023/09/26 10:52:11;;;;;;;4.85;2.72;;;;;;;;;;5094127;28;20016;-69
2023/09/26 10:54:39;;;;;;;2.85;2.38;;;;;;;;;;5093850;28;20065;-69
2023/09/26 10:57:06;;;;;;;3.45;2.35;;;;;;;;;;5093820;28;20028;-68
2023/09/26 10:59:33;;;;;;;4.20;2.35;;;;;;;;;;5093845;28;20039;-69
2023/09/26 11:02:00;;;;;;;6.15;2.50;;;;;;;;;;5093755;28;20480;-69
2023/09/26 11:04:28;;;;;;;5.28;2.65;;;;;;;;;;5093379;28;20431;-68
2023/09/26 11:06:56;;;;;;;4.22;2.65;;;;;;;;;;5093663;28;20042;-68
2023/09/26 11:09:23;;;;;;;3.35;2.40;;;;;;;;;;5092054;28;20020;-69
2023/09/26 11:11:49;;;;;;;3.08;2.33;;;;;;;;;;5075514;28;20088;-69
2023/09/26 11:14:16;;;;;;;3.20;2.58;;;;;;;;;;5093754;28;20020;-69
2023/09/26 11:16:42;;;;;;;4.38;2.55;;;;;;;;;;5093270;28;20032;-82
2023/09/26 11:19:12;;;;;;;2.80;2.30;;;;;;;;;;5075194;28;20245;-82
2023/09/26 11:21:38;;;;;;;5.10;2.60;;;;;;;;;;5093112;28;20036;-82
2023/09/26 11:24:19;;;;;;;2.80;2.55;;;;;;;;;;5093080;28;20027;-82
2023/09/26 11:26:48;;;;;;;5.15;2.88;;;;;;;;;;5075307;28;20026;-83
2023/09/26 11:29:16;;;;;;;3.08;2.78;;;;;;;;;;5093175;28;20023;-83
2023/09/26 11:31:43;;;;;;;7.75;2.70;;;;;;;;;;5092900;28;20495;-83
2023/09/26 11:34:10;;;;;;;4.85;2.70;;;;;;;;;;5093123;28;20022;-84
2023/09/26 11:36:39;;;;;;;6.18;2.70;;;;;;;;;;5093481;28;20030;-84
2023/09/26 11:39:06;;;;;;;5.18;2.83;;;;;;;;;;5093090;28;20034;-84
2023/09/26 11:41:33;;;;;;;3.50;2.65;;;;;;;;;;5093224;28;20484;-84
2023/09/26 11:44:09;;;;;;;3.13;2.80;;;;;;;;;;5092976;28;20028;-81
2023/09/26 11:46:39;;;;;;;3.10;2.80;;;;;;;;;;5099694;28;20031;-83
2023/09/26 11:49:06;;;;;;;2.85;2.58;;;;;;;;;;5092151;28;20032;-83
2023/09/26 11:51:32;;;;;;;2.53;2.33;;;;;;;;;;5092643;28;20039;-84
2023/09/26 11:53:59;;;;;;;3.97;2.67;;;;;;;;;;5092221;28;20531;-82
2023/09/26 11:56:28;;;;;;;4.05;2.70;;;;;;;;;;5092269;28;20036;-84
2023/09/26 11:58:55;;;;;;;5.78;2.80;;;;;;;;;;5092138;28;20020;-83
2023/09/26 12:01:21;;;;;;;2.88;2.58;;;;;;;;;;5091096;28;20358;-85
2023/09/26 12:03:47;;;;;;;2.80;2.60;;;;;;;;;;5089446;28;20032;-85
2023/09/26 12:06:14;;;;;;;2.78;2.55;;;;;;;;;;5092137;28;20024;-85
2023/09/26 12:08:40;;;;;;;3.03;2.72;;;;;;;;;;5092055;28;20430;-84
2023/09/26 12:11:06;;;;;;;3.40;2.80;;;;;;;;;;5091354;28;20374;-85
2023/09/26 12:13:33;;;;;;;3.00;2.63;;;;;;;;;;5092053;28;20020;-85
2023/09/26 12:15:59;;;;;;;4.25;2.80;;;;;;;;;;5105340;28;20038;-85
2023/09/26 12:18:28;;;;;;;3.35;2.75;;;;;;;;;;5112354;28;20011;-85
2023/09/26 12:20:57;;;;;;;3.03;2.80;;;;;;;;;;5112343;28;20407;-85
2023/09/26 12:23:24;;;;;;;4.28;2.80;;;;;;;;;;5108283;28;20416;-84
2023/09/26 12:25:50;;;;;;;4.75;2.90;;;;;;;;;;5091976;28;20374;-85
2023/09/26 12:28:17;;;;;;;5.32;3.03;;;;;;;;;;5090470;28;20030;-86
2023/09/26 12:30:44;;;;;;;3.10;2.83;;;;;;;;;;5091165;28;20036;-86
2023/09/26 12:33:10;;;;;;;3.00;2.70;;;;;;;;;;5091627;28;20036;-86
2023/09/26 12:35:37;;;;;;;3.78;2.80;;;;;;;;;;5091599;28;20032;-86
2023/09/26 12:38:03;;;;;;;3.58;2.60;;;;;;;;;;5090535;28;20054;-85
2023/09/26 12:40:29;;;;;;;3.13;2.83;;;;;;;;;;5091411;28;20031;-86
2023/09/26 12:42:56;;;;;;;2.97;2.78;;;;;;;;;;5090184;28;20020;-85
2023/09/26 12:45:22;;;;;;;3.00;2.63;;;;;;;;;;5090895;28;20032;-85
2023/09/26 12:47:49;;;;;;;4.72;3.00;;;;;;;;;;5091777;28;20533;-83
2023/09/26 12:50:15;;;;;;;3.15;2.60;;;;;;;;;;5091200;28;20047;-83
2023/09/26 12:52:42;;;;;;;3.13;2.80;;;;;;;;;;5091381;28;20027;-84
2023/09/26 12:55:09;;;;;;;3.38;3.08;;;;;;;;;;5092008;28;20038;-84
2023/09/26 12:57:37;;;;;;;2.80;2.60;;;;;;;;;;5091893;28;20079;-83
2023/09/26 13:00:09;;;;;;;3.47;2.50;;;;;;;;;;5095224;28;20028;-85
2023/09/26 13:02:39;;;;;;;3.33;2.45;;;;;;;;;;5095769;28;20030;-84
2023/09/26 13:05:06;;;;;;;2.60;2.40;;;;;;;;;;5096037;28;20028;-82
2023/09/26 13:07:33;;;;;;;5.85;2.70;;;;;;;;;;5095470;28;20028;-84
2023/09/26 13:09:59;;;;;;;3.17;2.30;;;;;;;;;;5095419;28;20025;-85
2023/09/26 13:12:26;;;;;;;2.58;2.22;;;;;;;;;;5095536;28;20396;-83
2023/09/26 13:14:53;;;;;;;2.40;2.20;;;;;;;;;;5097588;28;20039;-84
2023/09/26 13:17:19;;;;;;;2.30;2.10;;;;;;;;;;5099201;28;20060;-84
2023/09/26 13:19:46;;;;;;;2.97;2.40;;;;;;;;;;5095119;28;20028;-84
2023/09/26 13:22:13;;;;;;;2.80;2.50;;;;;;;;;;5095126;28;20034;-84
2023/09/26 13:24:40;;;;;;;2.25;2.05;;;;;;;;;;5094912;28;20039;-83
2023/09/26 13:27:07;;;;;;;2.63;2.42;;;;;;;;;;5095232;28;20024;-83
2023/09/26 13:29:33;;;;;;;2.15;2.05;;;;;;;;;;5077622;28;20042;-84
2023/09/26 13:32:00;;;;;;;2.50;2.28;;;;;;;;;;5095307;28;20028;-83
2023/09/26 13:34:27;;;;;;;3.05;2.30;;;;;;;;;;5095317;28;20024;-82
2023/09/26 13:36:53;;;;;;;2.42;2.22;;;;;;;;;;5095020;28;20032;-83
2023/09/26 13:39:20;;;;;;;4.57;2.33;;;;;;;;;;5094579;28;20028;-83
2023/09/26 13:41:46;;;;;;;2.33;2.13;;;;;;;;;;5095142;28;20119;-82
2023/09/26 13:44:12;;;;;;;2.65;2.45;;;;;;;;;;5094663;28;20032;-82
2023/09/26 13:46:39;;;;;;;2.25;2.05;;;;;;;;;;5094396;28;20426;-83
2023/09/26 13:49:05;;;;;;;2.45;2.25;;;;;;;;;;5094254;28;20507;-82
2023/09/26 13:51:32;;;;;;;3.38;2.25;;;;;;;;;;5094805;28;20549;-82
2023/09/26 13:53:59;;;;;;;2.17;1.98;;;;;;;;;;5094415;28;20044;-82
2023/09/26 13:56:25;;;;;;;2.70;2.15;;;;;;;;;;5094446;28;20054;-81
2023/09/26 13:58:51;;;;;;;2.35;2.15;;;;;;;;;;5094832;28;20495;-82
2023/09/26 14:01:18;;;;;;;3.30;2.20;;;;;;;;;;5094603;28;20036;-82
2023/09/26 14:03:45;;;;;;;2.10;2.00;;;;;;;;;;5093863;28;20473;-82
2023/09/26 14:06:12;;;;;;;2.40;2.17;;;;;;;;;;5094007;28;20027;-82
2023/09/26 14:08:42;;;;;;;2.30;2.00;;;;;;;;;;5092534;28;20156;-83
2023/09/26 14:11:10;;;;;;;2.35;2.15;;;;;;;;;;5074017;28;20034;-83
2023/09/26 14:13:37;;;;;;;2.70;2.03;;;;;;;;;;5079748;28;20016;-81
2023/09/26 14:16:04;;;;;;;2.42;2.03;;;;;;;;;;5096265;28;20028;-83
2023/09/26 14:18:30;;;;;;;2.33;2.10;;;;;;;;;;5114858;28;20031;-82
2023/09/26 14:20:58;;;;;;;1.90;1.80;;;;;;;;;;5097472;28;20035;-82
2023/09/26 14:23:25;;;;;;;2.30;2.10;;;;;;;;;;5092871;28;20020;-82
2023/09/26 14:25:52;;;;;;;2.38;2.05;;;;;;;;;;5093079;28;20526;-82
2023/09/26 14:28:19;;;;;;;2.55;1.83;;;;;;;;;;5093282;28;20024;-82
2023/09/26 14:30:46;;;;;;;2.17;1.90;;;;;;;;;;5093945;28;20046;-83
2023/09/26 14:33:13;;;;;;;2.80;1.85;;;;;;;;;;5094221;28;20020;-82
2023/09/26 14:35:40;;;;;;;2.85;2.10;;;;;;;;;;5093592;28;20120;-81
2023/09/26 14:38:06;;;;;;;1.92;1.75;;;;;;;;;;5093530;28;20034;-82
2023/09/26 14:40:32;;;;;;;2.33;2.13;;;;;;;;;;5093307;28;20089;-82
2023/09/26 14:42:59;;;;;;;3.47;2.10;;;;;;;;;;5093344;28;20020;-74